Time;durP1;ratioP1;P1;durP2;ratioP2;P2;SDS_P1;SDS_P2;PMS_P1;PMS_P2;Temp;Humidity;BMP_temperature;BMP_pressure;BME280_temperature;BME280_humidity;BME280_pressure;Samples;Min_cycle;Max_cycle;Signal;HPM_P1;HPM_P2
2023/11/12 00:00:03;;;;;;;0.50;0.50;;;;;;;10.95;53.02;96237.50;5090002;28;20060;-66
2023/11/12 00:02:30;;;;;;;0.50;0.50;;;;;;;10.97;53.42;96237.91;5086979;28;20461;-66
2023/11/12 00:04:56;;;;;;;0.50;0.50;;;;;;;10.97;53.52;96243.44;5086387;28;20056;-67
2023/11/12 00:07:23;;;;;;;0.40;0.40;;;;;;;10.59;53.46;96218.00;5086480;28;20149;-67
2023/11/12 00:09:50;;;;;;;0.50;0.50;;;;;;;10.52;53.81;96206.91;5086242;28;20052;-67
2023/11/12 00:12:19;;;;;;;0.50;0.50;;;;;;;10.69;54.55;96249.69;5086080;28;20542;-67
2023/11/12 00:14:46;;;;;;;0.40;0.40;;;;;;;10.70;54.09;96268.69;5086258;28;20503;-67
2023/11/12 00:17:13;;;;;;;0.50;0.50;;;;;;;10.70;54.17;96256.81;5085160;28;20070;-66
2023/11/12 00:19:40;;;;;;;0.50;0.50;;;;;;;10.60;54.68;96261.13;5086212;28;20044;-65
2023/11/12 00:22:08;;;;;;;0.40;0.40;;;;;;;10.38;54.66;96233.75;5090449;27;20048;-65
2023/11/12 00:24:35;;;;;;;0.50;0.50;;;;;;;10.47;54.87;96259.88;5086016;28;20422;-66
2023/11/12 00:27:01;;;;;;;0.47;0.47;;;;;;;10.52;54.34;96248.44;5086289;28;20127;-66
2023/11/12 00:29:28;;;;;;;0.50;0.50;;;;;;;10.57;54.51;96253.59;5086310;28;20051;-66
2023/11/12 00:31:56;;;;;;;0.50;0.50;;;;;;;10.56;53.93;96246.47;5085508;28;20052;-67
2023/11/12 00:34:23;;;;;;;0.40;0.40;;;;;;;10.68;53.34;96254.41;5085960;28;20087;-66
2023/11/12 00:36:51;;;;;;;0.50;0.50;;;;;;;10.84;53.16;96272.69;5085602;28;20075;-66
2023/11/12 00:39:17;;;;;;;0.40;0.40;;;;;;;10.95;52.80;96251.34;5085488;28;20158;-66
2023/11/12 00:41:44;;;;;;;0.50;0.50;;;;;;;10.98;52.74;96253.34;5085704;28;20044;-65
2023/11/12 00:44:11;;;;;;;0.40;0.40;;;;;;;11.04;52.58;96249.00;5085691;28;20544;-66
2023/11/12 00:46:40;;;;;;;0.43;0.43;;;;;;;11.05;52.48;96253.38;5085250;28;20048;-67
2023/11/12 00:49:07;;;;;;;0.40;0.40;;;;;;;11.15;51.61;96258.13;5085596;28;20458;-66
2023/11/12 00:51:37;;;;;;;0.50;0.50;;;;;;;11.16;51.61;96251.41;5085365;28;20051;-65
2023/11/12 00:54:04;;;;;;;0.50;0.50;;;;;;;11.11;51.71;96243.47;5057030;28;20091;-66
2023/11/12 00:56:32;;;;;;;0.50;0.50;;;;;;;11.25;51.78;96265.66;5085927;28;20051;-66
2023/11/12 00:58:58;;;;;;;0.47;0.47;;;;;;;10.84;51.83;96207.00;5084593;28;20054;-66
2023/11/12 01:01:25;;;;;;;0.50;0.50;;;;;;;11.17;51.55;96264.88;5086071;28;20331;-66
2023/11/12 01:03:52;;;;;;;0.50;0.50;;;;;;;10.60;51.24;96166.97;5085617;28;20056;-66
2023/11/12 01:06:19;;;;;;;0.40;0.40;;;;;;;11.24;51.41;96269.66;5085643;28;20052;-66
2023/11/12 01:08:46;;;;;;;0.50;0.50;;;;;;;11.21;51.59;96271.19;5083693;28;20044;-67
2023/11/12 01:11:13;;;;;;;0.45;0.45;;;;;;;11.13;51.72;96266.06;5083740;28;20055;-67
2023/11/12 01:13:40;;;;;;;0.50;0.50;;;;;;;10.86;51.89;96231.53;5084858;28;20062;-66
2023/11/12 01:16:07;;;;;;;0.50;0.50;;;;;;;11.06;53.00;96275.13;5083984;28;20487;-66
2023/11/12 01:18:35;;;;;;;0.50;0.50;;;;;;;10.52;55.57;96251.22;5083587;28;20332;-67
2023/11/12 01:21:05;;;;;;;0.50;0.50;;;;;;;10.51;55.06;96266.22;5085519;28;20076;-66
2023/11/12 01:23:32;;;;;;;0.40;0.40;;;;;;;10.51;55.47;96282.84;5085090;28;20043;-67
2023/11/12 01:25:59;;;;;;;0.50;0.50;;;;;;;10.38;56.71;96284.38;5085086;28;20055;-67
2023/11/12 01:28:29;;;;;;;0.40;0.40;;;;;;;10.25;57.47;96288.63;5083652;28;20063;-67
2023/11/12 01:30:56;;;;;;;0.43;0.43;;;;;;;10.18;57.32;96294.13;5085451;28;20056;-67
2023/11/12 01:33:23;;;;;;;0.50;0.50;;;;;;;10.02;58.14;96287.28;5083420;28;20091;-67
2023/11/12 01:35:51;;;;;;;0.40;0.40;;;;;;;9.98;58.53;96298.31;5084000;28;20070;-66
2023/11/12 01:38:18;;;;;;;0.50;0.50;;;;;;;9.85;59.22;96305.31;5084249;28;20127;-66
2023/11/12 01:40:45;;;;;;;0.50;0.50;;;;;;;9.44;59.50;96251.25;5084743;28;20054;-67
2023/11/12 01:43:12;;;;;;;0.50;0.50;;;;;;;9.66;60.11;96297.25;5084580;28;20230;-67
2023/11/12 01:45:39;;;;;;;0.40;0.40;;;;;;;9.46;60.84;96284.84;5084721;28;20056;-67
2023/11/12 01:48:08;;;;;;;0.50;0.50;;;;;;;9.11;60.68;96265.16;5084566;28;20113;-66
2023/11/12 01:50:36;;;;;;;0.40;0.40;;;;;;;9.59;59.83;96311.03;5084493;28;20039;-66
2023/11/12 01:53:03;;;;;;;0.47;0.47;;;;;;;9.29;60.91;96299.31;5084104;28;20052;-66
2023/11/12 01:55:32;;;;;;;0.40;0.40;;;;;;;9.23;61.04;96320.94;5084510;28;20040;-66
2023/11/12 01:58:00;;;;;;;0.40;0.40;;;;;;;8.86;61.43;96259.41;5084322;28;20044;-66
2023/11/12 02:00:27;;;;;;;0.40;0.40;;;;;;;7.23;61.82;96001.34;5083043;28;20078;-67
2023/11/12 02:02:54;;;;;;;0.40;0.40;;;;;;;9.05;63.21;96321.94;5084423;28;20059;-66
2023/11/12 02:05:23;;;;;;;0.45;0.45;;;;;;;8.44;65.23;96258.13;5084460;28;20043;-66
2023/11/12 02:07:50;;;;;;;0.40;0.40;;;;;;;8.96;64.00;96335.25;5083884;28;20048;-67
2023/11/12 02:10:17;;;;;;;0.40;0.40;;;;;;;8.84;64.85;96332.72;5083915;28;20134;-67
2023/11/12 02:12:46;;;;;;;0.40;0.40;;;;;;;8.84;64.10;96343.78;5083980;28;20589;-66
2023/11/12 02:15:14;;;;;;;0.40;0.40;;;;;;;8.36;64.55;96292.31;5084693;28;20071;-66
2023/11/12 02:17:46;;;;;;;0.40;0.40;;;;;;;8.74;64.52;96344.44;5084556;28;20468;-67
2023/11/12 02:20:16;;;;;;;0.50;0.50;;;;;;;8.64;64.98;96345.09;5083371;28;20513;-66
2023/11/12 02:22:44;;;;;;;0.40;0.40;;;;;;;8.51;65.37;96347.31;5084250;28;20040;-67
2023/11/12 02:25:13;;;;;;;0.47;0.47;;;;;;;7.76;67.60;96221.69;5082622;28;20101;-68
2023/11/12 02:27:40;;;;;;;0.40;0.40;;;;;;;7.90;69.14;96282.53;5084051;28;20659;-66
2023/11/12 02:30:10;;;;;;;0.40;0.40;;;;;;;8.32;68.93;96349.38;5084222;28;20066;-67
2023/11/12 02:32:38;;;;;;;0.40;0.40;;;;;;;8.26;71.19;96351.69;5082339;28;20048;-67
2023/11/12 02:35:07;;;;;;;0.40;0.40;;;;;;;8.30;71.03;96346.22;5083958;28;20052;-67
2023/11/12 02:37:35;;;;;;;0.40;0.40;;;;;;;8.19;71.56;96345.25;5084002;28;20060;-67
2023/11/12 02:40:02;;;;;;;0.40;0.40;;;;;;;8.09;70.77;96345.88;5083908;28;20070;-66
2023/11/12 02:42:29;;;;;;;0.40;0.40;;;;;;;8.03;70.96;96337.09;5083774;28;20512;-67
2023/11/12 02:44:59;;;;;;;0.40;0.40;;;;;;;7.97;71.81;96337.78;5083698;28;20171;-67
2023/11/12 02:47:27;;;;;;;0.40;0.40;;;;;;;7.98;72.50;96336.63;5083963;28;20052;-67
2023/11/12 02:50:31;;;;;;;0.50;0.50;;;;;;;7.87;72.42;96335.69;5083896;28;20052;-67
2023/11/12 02:53:03;;;;;;;;;;;;;;;7.76;73.35;96338.28;5084621;28;20106;-67
2023/11/12 02:55:31;;;;;;;0.40;0.40;;;;;;;7.56;75.44;96333.97;5083543;28;19923;-67
2023/11/12 02:57:58;;;;;;;0.40;0.40;;;;;;;7.59;76.61;96334.03;5083957;28;20067;-67
2023/11/12 03:00:27;;;;;;;0.40;0.40;;;;;;;7.51;76.75;96321.31;5084057;28;20074;-67
2023/11/12 03:02:57;;;;;;;0.40;0.40;;;;;;;7.63;76.94;96342.38;5084058;28;20232;-67
2023/11/12 03:05:25;;;;;;;0.40;0.40;;;;;;;7.65;77.33;96343.59;5083985;28;20144;-67
2023/11/12 03:07:51;;;;;;;0.40;0.40;;;;;;;7.62;77.88;96344.34;5082573;28;20052;-67
2023/11/12 03:10:18;;;;;;;0.40;0.40;;;;;;;7.56;78.39;96350.50;5081910;28;20135;-67
2023/11/12 03:12:46;;;;;;;0.40;0.40;;;;;;;6.94;77.99;96340.72;5083340;28;20044;-66
2023/11/12 03:15:13;;;;;;;0.30;0.30;;;;;;;7.36;76.82;96352.53;5083626;28;20067;-67
2023/11/12 03:17:40;;;;;;;0.40;0.40;;;;;;;7.11;78.22;96323.72;5083492;28;20453;-67
2023/11/12 03:20:10;;;;;;;0.38;0.38;;;;;;;6.98;77.70;96292.03;5083768;28;20052;-67
2023/11/12 03:22:37;;;;;;;0.30;0.30;;;;;;;7.33;77.37;96360.75;5083620;28;20063;-67
2023/11/12 03:25:05;;;;;;;0.30;0.30;;;;;;;6.93;77.12;96289.59;5083456;28;20044;-67
2023/11/12 03:27:35;;;;;;;0.40;0.40;;;;;;;7.33;77.74;96369.78;5083604;28;20044;-66
2023/11/12 03:30:02;;;;;;;0.30;0.30;;;;;;;7.32;77.59;96370.94;5083605;28;20132;-67
2023/11/12 03:32:29;;;;;;;0.30;0.30;;;;;;;7.43;78.58;96376.66;5083418;28;20059;-67
2023/11/12 03:34:57;;;;;;;0.30;0.30;;;;;;;6.56;78.68;96280.19;5081495;28;20574;-67
2023/11/12 03:37:24;;;;;;;0.40;0.40;;;;;;;7.16;79.43;96381.25;5083158;28;20130;-67
2023/11/12 03:39:52;;;;;;;0.40;0.40;;;;;;;6.94;79.61;96401.28;5083378;28;20093;-67
2023/11/12 03:42:18;;;;;;;0.30;0.30;;;;;;;6.97;79.82;96395.06;5083195;28;20510;-67
2023/11/12 03:44:51;;;;;;;0.30;0.30;;;;;;;6.98;80.25;96396.66;5082950;28;20052;-67
2023/11/12 03:47:18;;;;;;;0.30;0.30;;;;;;;6.78;80.37;96392.28;5082769;28;20510;-67
2023/11/12 03:49:45;;;;;;;0.40;0.40;;;;;;;6.52;80.85;96359.13;5083248;28;20408;-68
2023/11/12 03:52:12;;;;;;;0.30;0.30;;;;;;;6.68;81.34;96398.38;5083587;28;20079;-67
2023/11/12 03:54:39;;;;;;;0.30;0.30;;;;;;;6.47;80.84;96395.16;5083500;28;20075;-67
2023/11/12 03:57:06;;;;;;;0.40;0.40;;;;;;;6.39;82.43;96401.66;5083025;28;20134;-66
2023/11/12 03:59:35;;;;;;;0.40;0.40;;;;;;;6.42;82.67;96406.44;5086613;28;20503;-68
2023/11/12 04:02:04;;;;;;;0.30;0.30;;;;;;;6.31;82.63;96408.16;5086334;28;20058;-67
2023/11/12 04:04:31;;;;;;;0.30;0.30;;;;;;;6.30;83.22;96409.31;5086507;28;20051;-67
2023/11/12 04:06:58;;;;;;;0.30;0.30;;;;;;;6.35;83.36;96406.31;5085015;28;20055;-68
2023/11/12 04:09:25;;;;;;;0.35;0.35;;;;;;;6.36;83.50;96407.88;5086620;28;20344;-67
2023/11/12 04:11:51;;;;;;;0.40;0.40;;;;;;;6.35;83.04;96406.31;5086472;28;20100;-67
2023/11/12 04:14:18;;;;;;;0.30;0.30;;;;;;;6.23;83.49;96414.66;5085956;28;20506;-65
2023/11/12 04:16:45;;;;;;;0.30;0.30;;;;;;;5.81;84.64;96430.09;5084571;28;20063;-66
2023/11/12 04:19:12;;;;;;;0.30;0.30;;;;;;;5.43;87.67;96424.38;5086527;28;20192;-66
2023/11/12 04:21:38;;;;;;;0.30;0.30;;;;;;;5.66;86.63;96428.13;5085266;28;20052;-67
2023/11/12 04:24:06;;;;;;;0.30;0.30;;;;;;;5.71;86.75;96436.09;5086637;28;20060;-67
2023/11/12 04:26:33;;;;;;;0.30;0.30;;;;;;;5.78;86.38;96439.06;5084698;28;20047;-67
2023/11/12 04:29:03;;;;;;;0.30;0.30;;;;;;;5.72;86.98;96435.75;5085940;28;20055;-66
2023/11/12 04:31:30;;;;;;;0.30;0.30;;;;;;;5.75;87.37;96445.25;5086669;28;20130;-66
2023/11/12 04:33:57;;;;;;;0.30;0.30;;;;;;;5.72;88.18;96443.22;5086269;28;20048;-66
2023/11/12 04:36:27;;;;;;;0.30;0.30;;;;;;;5.70;87.84;96442.75;5084175;28;20140;-67
2023/11/12 04:38:54;;;;;;;0.30;0.30;;;;;;;5.39;88.29;96407.03;5084045;28;20058;-65
2023/11/12 04:41:20;;;;;;;0.30;0.30;;;;;;;5.03;87.72;96333.91;4908512;28;5001856;-66
2023/11/12 04:43:48;;;;;;;0.30;0.30;;;;;;;5.42;86.20;96462.03;5085624;28;20086;-66
2023/11/12 04:46:17;;;;;;;0.30;0.30;;;;;;;5.19;87.85;96446.47;5085982;28;20143;-65
2023/11/12 04:48:45;;;;;;;0.30;0.30;;;;;;;5.39;88.04;96473.72;5085802;28;20054;-65
2023/11/12 04:51:12;;;;;;;0.30;0.30;;;;;;;5.40;88.51;96469.03;5085204;28;20056;-66
2023/11/12 04:53:40;;;;;;;0.30;0.30;;;;;;;5.42;88.12;96472.25;5085292;28;20499;-66
2023/11/12 04:56:08;;;;;;;0.30;0.30;;;;;;;5.40;88.14;96469.84;5086067;28;20048;-66
2023/11/12 04:58:34;;;;;;;0.30;0.30;;;;;;;5.42;88.42;96483.22;5085789;28;20064;-65
2023/11/12 05:01:06;;;;;;;0.30;0.30;;;;;;;5.50;87.60;96485.00;5084449;28;20143;-65
2023/11/12 05:03:33;;;;;;;0.30;0.30;;;;;;;4.71;87.40;96362.41;5083962;28;20056;-66
2023/11/12 05:06:00;;;;;;;0.30;0.30;;;;;;;5.54;87.78;96478.47;5084993;28;20125;-66
2023/11/12 05:08:28;;;;;;;0.30;0.30;;;;;;;5.59;87.38;96472.72;5085331;28;20067;-66
2023/11/12 05:10:55;;;;;;;0.30;0.30;;;;;;;5.63;87.39;96483.78;5085107;28;20142;-66
2023/11/12 05:13:21;;;;;;;0.30;0.30;;;;;;;5.25;88.57;96426.66;5085244;28;20058;-65
2023/11/12 05:15:48;;;;;;;0.30;0.30;;;;;;;5.54;88.84;96480.41;5085560;28;20055;-66
2023/11/12 05:18:15;;;;;;;0.30;0.30;;;;;;;5.42;88.34;96442.03;5085187;28;20055;-66
2023/11/12 05:20:42;;;;;;;0.30;0.30;;;;;;;5.79;88.03;96487.34;5083642;28;20249;-66
2023/11/12 05:23:09;;;;;;;0.30;0.30;;;;;;;5.87;86.92;96495.47;5084955;28;20535;-66
2023/11/12 05:25:36;;;;;;;0.30;0.30;;;;;;;5.97;87.25;96505.13;5083220;28;20052;-65
2023/11/12 05:28:04;;;;;;;0.30;0.30;;;;;;;5.31;87.76;96493.88;5083664;28;20052;-67
2023/11/12 05:30:33;;;;;;;0.30;0.30;;;;;;;5.15;88.38;96511.47;5085565;28;20052;-66
2023/11/12 05:33:00;;;;;;;0.30;0.30;;;;;;;5.02;89.72;96529.13;5084978;28;20044;-67
2023/11/12 05:35:27;;;;;;;0.30;0.30;;;;;;;4.85;90.82;96530.19;5084280;28;20070;-67
2023/11/12 05:37:54;;;;;;;0.20;0.20;;;;;;;4.83;91.01;96504.25;5082044;28;20062;-65
2023/11/12 05:40:21;;;;;;;0.30;0.30;;;;;;;5.19;90.86;96526.09;5083154;28;20044;-66
2023/11/12 05:42:48;;;;;;;0.30;0.30;;;;;;;5.18;90.59;96519.00;5083183;28;20071;-67
2023/11/12 05:45:15;;;;;;;0.30;0.30;;;;;;;5.12;89.80;96550.59;5081594;28;20056;-67
2023/11/12 05:47:42;;;;;;;0.30;0.30;;;;;;;5.38;91.11;96549.03;5083616;28;20048;-65
2023/11/12 05:50:09;;;;;;;0.30;0.30;;;;;;;4.79;90.79;96421.03;5096387;28;20043;-66
2023/11/12 05:52:37;;;;;;;0.30;0.30;;;;;;;5.78;90.55;96546.22;5082836;28;20067;-67
2023/11/12 05:55:05;;;;;;;0.30;0.30;;;;;;;5.94;88.96;96547.84;5099974;28;20056;-65
2023/11/12 05:57:31;;;;;;;0.30;0.30;;;;;;;6.12;88.50;96556.56;5083116;28;20051;-66
2023/11/12 05:59:58;;;;;;;0.30;0.30;;;;;;;6.27;87.49;96564.03;5083098;28;20413;-66
2023/11/12 06:02:25;;;;;;;0.30;0.30;;;;;;;6.42;86.70;96560.47;5082925;28;20062;-66
2023/11/12 06:04:52;;;;;;;0.30;0.30;;;;;;;6.66;86.32;96567.75;5084234;28;20048;-66
2023/11/12 06:07:19;;;;;;;0.40;0.40;;;;;;;6.42;83.17;96483.47;5084369;28;20051;-66
2023/11/12 06:09:46;;;;;;;0.40;0.40;;;;;;;6.65;83.61;96511.94;5083664;28;20052;-66
2023/11/12 06:12:13;;;;;;;0.40;0.40;;;;;;;6.79;81.90;96509.50;5082991;28;20109;-66
2023/11/12 06:14:40;;;;;;;0.40;0.40;;;;;;;7.33;82.19;96557.09;5084300;28;20449;-65
2023/11/12 06:17:07;;;;;;;0.40;0.40;;;;;;;7.58;81.47;96558.44;5083167;28;20072;-66
2023/11/12 06:19:34;;;;;;;0.38;0.38;;;;;;;7.67;79.18;96561.78;5082259;28;20634;-66
2023/11/12 06:22:01;;;;;;;0.40;0.40;;;;;;;7.55;78.82;96515.09;5083457;28;20413;-64
2023/11/12 06:24:28;;;;;;;0.40;0.40;;;;;;;7.95;77.84;96530.41;5083570;28;20079;-65
2023/11/12 06:26:55;;;;;;;0.40;0.40;;;;;;;8.38;76.23;96557.59;5083749;28;20052;-64
2023/11/12 06:29:21;;;;;;;0.40;0.40;;;;;;;8.50;75.85;96549.97;5083247;28;20525;-65
2023/11/12 06:31:48;;;;;;;0.40;0.40;;;;;;;8.89;75.09;96567.13;5082509;28;20070;-64
2023/11/12 06:34:15;;;;;;;0.50;0.50;;;;;;;9.09;71.71;96566.66;5082665;28;20048;-64
2023/11/12 06:36:42;;;;;;;0.40;0.40;;;;;;;9.49;71.41;96563.28;5074666;28;20055;-65
2023/11/12 06:39:13;;;;;;;0.40;0.40;;;;;;;9.86;70.39;96550.34;5082195;28;20079;-66
2023/11/12 06:41:43;;;;;;;0.50;0.50;;;;;;;9.74;69.47;96486.97;5083881;28;20421;-65
2023/11/12 06:44:11;;;;;;;0.43;0.43;;;;;;;9.80;68.79;96430.13;5082936;28;20152;-65
2023/11/12 06:46:46;;;;;;;0.50;0.50;;;;;;;10.64;66.48;96507.63;5082087;28;20060;-65
2023/11/12 06:49:13;;;;;;;0.50;0.50;;;;;;;10.93;64.29;96522.47;5083323;28;20590;-64
2023/11/12 06:51:40;;;;;;;0.50;0.50;;;;;;;11.00;64.12;96517.00;5081975;28;20055;-65
2023/11/12 06:54:08;;;;;;;0.50;0.50;;;;;;;11.40;61.97;96550.09;5083666;28;20052;-67
2023/11/12 06:56:35;;;;;;;0.50;0.50;;;;;;;11.76;61.04;96563.03;5081955;28;20071;-67
2023/11/12 06:59:02;;;;;;;0.50;0.50;;;;;;;11.97;60.01;96579.75;5084140;28;20056;-68
2023/11/12 07:01:29;;;;;;;0.55;0.55;;;;;;;12.07;58.89;96581.78;5083122;28;20399;-67
2023/11/12 07:03:56;;;;;;;0.50;0.50;;;;;;;11.05;56.96;96556.22;5082526;28;20052;-67
2023/11/12 07:06:23;;;;;;;0.50;0.50;;;;;;;11.30;58.34;96556.41;5083953;28;20230;-68
2023/11/12 07:08:50;;;;;;;0.60;0.60;;;;;;;11.46;61.20;96596.50;5082628;28;20499;-68
2023/11/12 07:11:17;;;;;;;0.52;0.52;;;;;;;10.95;62.09;96529.25;5081732;28;20070;-68
2023/11/12 07:13:44;;;;;;;0.40;0.40;;;;;;;11.48;61.28;96605.22;5081943;28;20287;-67
2023/11/12 07:16:16;;;;;;;0.50;0.50;;;;;;;11.36;60.83;96605.56;5083807;28;20047;-67
2023/11/12 07:18:44;;;;;;;0.50;0.50;;;;;;;11.45;62.81;96602.44;5083704;28;20109;-67
2023/11/12 07:21:38;;;;;;;0.50;0.50;;;;;;;10.82;65.06;96524.38;5082241;28;20048;-65
2023/11/12 07:24:05;;;;;;;0.50;0.50;;;;;;;10.35;68.60;96614.53;5082169;28;20056;-67
2023/11/12 07:26:32;;;;;;;0.50;0.50;;;;;;;9.97;70.77;96628.72;5083212;28;20063;-67
2023/11/12 07:28:59;;;;;;;0.50;0.50;;;;;;;10.40;70.33;96625.28;5082959;28;20056;-67
2023/11/12 07:31:25;;;;;;;0.50;0.50;;;;;;;10.80;69.19;96623.69;5084131;28;20052;-66
2023/11/12 07:33:52;;;;;;;0.50;0.50;;;;;;;10.29;68.90;96527.47;5088627;28;20079;-65
2023/11/12 07:36:21;;;;;;;0.50;0.50;;;;;;;11.22;68.24;96615.75;5086154;28;20054;-65
2023/11/12 07:38:48;;;;;;;0.50;0.50;;;;;;;10.45;65.59;96541.88;5086991;28;20601;-65
2023/11/12 07:41:15;;;;;;;0.50;0.50;;;;;;;11.15;65.79;96644.22;5087555;28;20319;-63
2023/11/12 07:43:42;;;;;;;0.50;0.50;;;;;;;11.40;65.84;96619.44;5087196;28;20060;-65
2023/11/12 07:46:09;;;;;;;0.50;0.50;;;;;;;11.46;65.10;96609.59;5087328;28;20441;-64
2023/11/12 07:48:36;;;;;;;0.60;0.60;;;;;;;11.81;64.67;96612.56;5085277;28;20050;-65
2023/11/12 07:51:03;;;;;;;0.50;0.50;;;;;;;12.18;60.48;96618.72;5087001;28;20044;-65
2023/11/12 07:53:30;;;;;;;0.55;0.55;;;;;;;12.26;60.08;96620.31;5086977;28;20055;-64
2023/11/12 07:55:56;;;;;;;0.60;0.60;;;;;;;12.39;59.18;96629.09;5087086;28;20079;-65
2023/11/12 07:58:23;;;;;;;0.50;0.50;;;;;;;12.55;58.61;96624.75;5086648;28;20054;-67
2023/11/12 08:00:50;;;;;;;0.55;0.55;;;;;;;12.12;58.34;96631.38;5086883;28;20477;-64
2023/11/12 08:03:17;;;;;;;0.50;0.50;;;;;;;12.61;58.31;96625.19;5086604;28;20052;-64
2023/11/12 08:05:45;;;;;;;0.60;0.60;;;;;;;13.04;57.32;96626.88;5086708;28;20678;-65
2023/11/12 08:08:12;;;;;;;0.60;0.60;;;;;;;13.24;56.60;96614.16;5086772;28;20059;-64
2023/11/12 08:10:39;;;;;;;0.52;0.52;;;;;;;12.75;55.83;96514.84;5086014;28;20051;-64
2023/11/12 08:13:06;;;;;;;0.60;0.60;;;;;;;13.55;56.58;96619.69;5086632;28;20047;-65
2023/11/12 08:15:33;;;;;;;0.70;0.70;;;;;;;13.54;55.54;96629.25;5084910;28;20097;-64
2023/11/12 08:17:59;;;;;;;0.60;0.60;;;;;;;13.69;56.57;96630.81;5085007;28;20139;-65
2023/11/12 08:20:26;;;;;;;0.63;0.63;;;;;;;13.82;56.35;96616.44;5085064;28;20099;-66
2023/11/12 08:22:53;;;;;;;0.60;0.60;;;;;;;14.14;56.23;96633.88;5083529;28;20047;-65
2023/11/12 08:25:20;;;;;;;0.60;0.60;;;;;;;14.31;55.51;96641.38;5083412;28;20056;-65
2023/11/12 08:27:47;;;;;;;0.60;0.60;;;;;;;14.45;54.15;96635.75;5083367;28;20519;-64
2023/11/12 08:30:14;;;;;;;0.60;0.60;;;;;;;14.38;54.28;96627.44;5084714;28;20683;-64
2023/11/12 08:32:40;;;;;;;0.70;0.70;;;;;;;14.35;55.58;96633.81;5083422;28;20937;-64
2023/11/12 08:35:07;;;;;;;0.60;0.60;;;;;;;14.45;54.63;96641.31;5084063;28;20055;-64
2023/11/12 08:37:35;;;;;;;0.68;0.68;;;;;;;14.84;54.21;96639.16;5085130;28;20079;-65
2023/11/12 08:40:03;;;;;;;0.68;0.68;;;;;;;14.88;53.77;96603.66;5083611;28;20135;-66
2023/11/12 08:42:29;;;;;;;0.60;0.60;;;;;;;14.98;51.49;96572.09;5082395;28;20105;-65
2023/11/12 08:44:56;;;;;;;0.70;0.70;;;;;;;15.64;52.23;96632.16;5081781;28;20044;-63
2023/11/12 08:47:23;;;;;;;0.70;0.70;;;;;;;15.80;50.69;96635.19;5082717;28;20054;-66
2023/11/12 08:49:50;;;;;;;0.70;0.70;;;;;;;15.99;50.63;96636.59;5081905;28;20678;-65
2023/11/12 08:52:17;;;;;;;0.70;0.70;;;;;;;16.17;50.46;96626.81;5083970;28;20075;-65
2023/11/12 08:54:45;;;;;;;0.70;0.70;;;;;;;15.94;49.76;96570.81;5082344;28;20052;-65
2023/11/12 08:57:12;;;;;;;0.70;0.70;;;;;;;16.04;48.94;96561.50;5084911;28;20091;-65
2023/11/12 08:59:39;;;;;;;0.70;0.70;;;;;;;16.75;48.65;96622.13;5085519;28;20134;-67
2023/11/12 09:02:06;;;;;;;0.75;0.75;;;;;;;16.94;46.16;96613.06;5085115;28;20086;-66
2023/11/12 09:04:36;;;;;;;0.70;0.70;;;;;;;15.24;47.21;96328.72;5084959;28;20495;-66
2023/11/12 09:07:03;;;;;;;0.80;0.80;;;;;;;16.64;45.78;96571.94;5084025;28;20087;-64
2023/11/12 09:09:32;;;;;;;0.80;0.80;;;;;;;16.93;44.83;96619.88;5085108;28;20056;-65
2023/11/12 09:11:59;;;;;;;0.70;0.70;;;;;;;17.04;44.53;96624.06;5083332;28;20139;-65
2023/11/12 09:14:26;;;;;;;0.70;0.70;;;;;;;16.87;44.92;96613.13;5084125;28;20056;-65
2023/11/12 09:16:53;;;;;;;0.65;0.65;;;;;;;16.54;44.50;96584.84;5083290;28;20139;-66
2023/11/12 09:19:20;;;;;;;0.70;0.70;;;;;;;16.82;44.88;96616.44;5083659;28;20055;-67
2023/11/12 09:21:47;;;;;;;0.60;0.60;;;;;;;16.76;43.05;96646.06;5084729;28;20519;-68
2023/11/12 09:24:14;;;;;;;0.70;0.70;;;;;;;16.68;44.40;96611.03;5084998;28;20059;-68
2023/11/12 09:26:40;;;;;;;0.70;0.70;;;;;;;16.85;44.21;96605.16;5100542;28;20058;-65
2023/11/12 09:29:07;;;;;;;0.70;0.70;;;;;;;16.96;44.95;96605.03;5083607;28;20052;-65
2023/11/12 09:31:34;;;;;;;0.70;0.70;;;;;;;16.93;43.25;96615.03;5083364;28;20458;-68
2023/11/12 09:34:01;;;;;;;0.70;0.70;;;;;;;16.87;41.71;96602.75;5084996;28;20044;-66
2023/11/12 09:36:28;;;;;;;0.70;0.70;;;;;;;16.46;40.97;96621.69;5082829;28;20113;-70
2023/11/12 09:38:55;;;;;;;0.60;0.60;;;;;;;16.23;41.27;96613.19;5083159;28;20527;-66
2023/11/12 09:41:23;;;;;;;0.65;0.65;;;;;;;16.02;42.10;96619.81;5082858;28;20426;-66
2023/11/12 09:43:55;;;;;;;0.60;0.60;;;;;;;15.75;42.06;96609.72;5084306;28;20690;-66
2023/11/12 09:46:25;;;;;;;0.70;0.70;;;;;;;15.49;42.13;96552.53;5084352;28;20048;-66
2023/11/12 09:48:53;;;;;;;0.70;0.70;;;;;;;15.79;41.57;96605.66;5083808;28;20048;-65
2023/11/12 09:51:21;;;;;;;0.70;0.70;;;;;;;15.30;42.43;96521.63;5076889;28;20051;-65
2023/11/12 09:53:50;;;;;;;0.70;0.70;;;;;;;15.59;42.45;96550.84;5062647;28;20040;-65
2023/11/12 09:56:17;;;;;;;0.70;0.70;;;;;;;15.98;42.54;96593.88;5061915;28;20056;-65
2023/11/12 09:58:45;;;;;;;0.70;0.70;;;;;;;15.94;41.73;96601.53;5062770;28;20059;-65
2023/11/12 10:01:13;;;;;;;0.60;0.60;;;;;;;15.95;41.83;96585.56;5060455;28;20507;-66
2023/11/12 10:03:46;;;;;;;0.70;0.70;;;;;;;15.72;41.79;96566.66;5061264;28;21097;-65
2023/11/12 10:06:14;;;;;;;0.65;0.65;;;;;;;15.83;41.66;96600.84;5064214;28;20418;-65
2023/11/12 10:08:41;;;;;;;0.60;0.60;;;;;;;15.77;41.68;96607.31;5063788;28;20426;-64
2023/11/12 10:11:20;;;;;;;0.68;0.68;;;;;;;15.57;42.50;96604.28;5062950;28;20475;-65
2023/11/12 10:13:47;;;;;;;0.60;0.60;;;;;;;15.54;42.16;96591.16;5060709;28;20084;-65
2023/11/12 10:16:23;;;;;;;0.60;0.60;;;;;;;15.49;42.36;96574.88;5061767;28;20404;-65
2023/11/12 10:18:53;;;;;;;0.73;0.73;;;;;;;15.75;42.45;96585.38;5062132;28;20170;-65
2023/11/12 10:21:20;;;;;;;0.70;0.70;;;;;;;15.92;42.55;96576.00;5060673;28;20447;-66
2023/11/12 10:24:03;;;;;;;0.70;0.70;;;;;;;15.91;41.36;96574.44;5062436;28;20098;-67
2023/11/12 10:26:34;;;;;;;0.70;0.70;;;;;;;15.72;41.86;96583.41;5061527;28;20054;-64
2023/11/12 10:29:01;;;;;;;0.80;0.80;;;;;;;15.88;41.93;96564.09;5061614;28;20131;-65
2023/11/12 10:31:37;;;;;;;0.70;0.70;;;;;;;16.14;41.69;96560.56;5062745;28;20059;-66
2023/11/12 10:34:05;;;;;;;0.70;0.70;;;;;;;16.15;40.95;96562.19;5063919;28;20052;-66
2023/11/12 10:36:31;;;;;;;0.70;0.70;;;;;;;15.88;41.00;96529.78;5063097;28;20066;-66
2023/11/12 10:39:03;;;;;;;0.70;0.70;;;;;;;15.99;41.28;96575.94;5063988;28;20101;-66
2023/11/12 10:41:35;;;;;;;0.70;0.70;;;;;;;15.96;40.98;96570.38;5068378;28;20068;-66
2023/11/12 10:44:03;;;;;;;0.70;0.70;;;;;;;15.99;40.37;96564.75;5063843;28;20139;-65
2023/11/12 10:46:32;;;;;;;0.70;0.70;;;;;;;16.14;40.84;96580.13;5063855;28;20499;-65
2023/11/12 10:49:00;;;;;;;0.70;0.70;;;;;;;15.86;40.37;96543.34;5064643;28;20080;-64
2023/11/12 10:51:27;;;;;;;0.70;0.70;;;;;;;15.71;40.86;96500.84;5082154;28;20522;-64
2023/11/12 10:53:58;;;;;;;0.70;0.70;;;;;;;16.22;40.64;96567.66;5081733;28;20106;-65
2023/11/12 10:56:27;;;;;;;0.70;0.70;;;;;;;16.41;40.49;96558.63;5080766;28;20063;-66
2023/11/12 10:58:55;;;;;;;0.70;0.70;;;;;;;16.59;39.98;96553.63;5083525;28;20123;-66
2023/11/12 11:01:23;;;;;;;0.60;0.60;;;;;;;16.23;39.37;96513.34;5082440;28;20048;-66
2023/11/12 11:03:51;;;;;;;0.70;0.70;;;;;;;16.08;39.49;96523.13;5082199;28;20072;-68
2023/11/12 11:06:18;;;;;;;0.70;0.70;;;;;;;16.39;39.85;96560.28;5082709;28;20523;-67
2023/11/12 11:08:45;;;;;;;0.60;0.60;;;;;;;16.57;39.98;96553.25;5087454;28;20501;-68
2023/11/12 11:11:12;;;;;;;0.80;0.80;;;;;;;16.68;40.22;96560.69;5086045;28;20052;-67
2023/11/12 11:13:39;;;;;;;0.70;0.70;;;;;;;16.80;39.17;96569.31;5087134;28;20055;-67
2023/11/12 11:16:07;;;;;;;0.70;0.70;;;;;;;16.89;39.62;96565.97;5087703;28;20059;-67
2023/11/12 11:18:49;;;;;;;0.70;0.70;;;;;;;16.80;38.74;96569.31;5087358;28;20104;-67
2023/11/12 11:21:22;;;;;;;0.70;0.70;;;;;;;16.59;39.01;96564.81;5086040;28;20063;-69
2023/11/12 11:23:52;;;;;;;0.70;0.70;;;;;;;16.55;39.00;96569.63;5086978;28;20447;-69
2023/11/12 11:26:27;;;;;;;0.70;0.70;;;;;;;16.66;39.62;96557.53;5087457;28;20559;-67
2023/11/12 11:29:10;;;;;;;0.70;0.70;;;;;;;16.90;39.28;96559.16;5085987;28;20056;-68
2023/11/12 11:32:01;;;;;;;0.80;0.80;;;;;;;14.03;38.92;96104.00;5085488;28;20055;-66
2023/11/12 11:34:41;;;;;;;0.80;0.80;;;;;;;16.86;39.62;96566.81;5065506;28;20151;-67
2023/11/12 11:37:09;;;;;;;0.80;0.80;;;;;;;16.83;38.58;96546.06;5066672;28;20059;-67
2023/11/12 11:39:37;;;;;;;0.70;0.70;;;;;;;16.77;39.49;96558.16;5066842;28;20052;-65